createdAt,value
2018-05-24T00:01:27.771Z,16.06
2018-05-24T00:03:53.731Z,15.98
2018-05-24T00:06:20.005Z,15.98
2018-05-24T00:08:45.899Z,15.94
2018-05-24T00:11:11.763Z,15.81
2018-05-24T00:13:37.715Z,15.84
2018-05-24T00:16:03.696Z,15.83
2018-05-24T00:18:29.569Z,15.73
2018-05-24T00:20:55.489Z,15.78
2018-05-24T00:23:21.355Z,15.80
2018-05-24T00:25:47.240Z,15.79
2018-05-24T00:28:13.259Z,15.75
2018-05-24T00:30:39.192Z,15.72
2018-05-24T00:33:05.093Z,15.69
2018-05-24T00:35:31.011Z,15.57
2018-05-24T00:37:56.885Z,15.60
2018-05-24T00:40:22.855Z,15.59
2018-05-24T00:42:48.856Z,15.59
2018-05-24T00:45:14.762Z,15.54
2018-05-24T00:47:40.670Z,15.55
2018-05-24T00:50:13.814Z,15.48
2018-05-24T00:52:39.779Z,15.35
2018-05-24T00:55:18.108Z,15.40
2018-05-24T00:57:43.995Z,15.36
2018-05-24T01:00:09.859Z,15.26
2018-05-24T01:02:35.766Z,15.32
2018-05-24T01:05:01.723Z,15.32
2018-05-24T01:07:27.647Z,15.24
2018-05-24T01:09:53.565Z,15.21
2018-05-24T01:12:19.432Z,15.13
2018-05-24T01:14:45.295Z,15.08
2018-05-24T01:17:11.306Z,15.08
2018-05-24T01:19:37.253Z,15.08
2018-05-24T01:22:03.131Z,15.03
2018-05-24T01:24:29.081Z,14.98
2018-05-24T01:26:54.963Z,15.01
2018-05-24T01:29:20.931Z,14.99
2018-05-24T01:31:46.924Z,14.99
2018-05-24T01:34:12.808Z,14.96
2018-05-24T01:36:51.037Z,15.05
2018-05-24T01:39:16.937Z,15.00
2018-05-24T01:41:43.414Z,14.99
2018-05-24T01:44:09.400Z,14.98
2018-05-24T01:46:35.280Z,14.99
2018-05-24T01:49:02.267Z,15.05
2018-05-24T01:51:28.212Z,15.10
2018-05-24T01:53:54.167Z,15.05
2018-05-24T01:56:20.095Z,14.98
2018-05-24T01:58:46.027Z,15.01
2018-05-24T02:01:11.928Z,14.93
2018-05-24T02:03:37.811Z,14.94
2018-05-24T02:06:03.840Z,14.87
2018-05-24T02:08:29.769Z,14.84
2018-05-24T02:10:55.650Z,14.89
2018-05-24T02:13:21.593Z,14.82
2018-05-24T02:15:47.468Z,14.77
2018-05-24T02:18:13.432Z,14.76
2018-05-24T02:20:39.415Z,14.66
2018-05-24T02:23:05.321Z,14.64
2018-05-24T02:25:31.195Z,14.57
2018-05-24T02:27:57.089Z,14.52
2018-05-24T02:30:23.035Z,14.54
2018-05-24T02:32:48.981Z,14.48
2018-05-24T02:35:14.929Z,14.42
2018-05-24T02:37:40.833Z,14.43
2018-05-24T02:40:06.765Z,14.44
2018-05-24T02:42:32.786Z,14.39
2018-05-24T02:44:58.740Z,14.37
2018-05-24T02:47:24.611Z,14.41
2018-05-24T02:49:50.533Z,14.39
2018-05-24T02:52:16.399Z,14.39
2018-05-24T02:54:42.357Z,14.35
2018-05-24T02:57:08.339Z,14.37
2018-05-24T02:59:34.217Z,14.37
2018-05-24T03:02:01.279Z,14.36
2018-05-24T03:04:27.204Z,14.34
2018-05-24T03:06:53.186Z,14.30
2018-05-24T03:09:23.670Z,14.22
2018-05-24T03:11:49.679Z,14.24
2018-05-24T03:14:15.638Z,14.23
2018-05-24T03:16:41.564Z,14.26
2018-05-24T03:19:07.682Z,14.24
2018-05-24T03:21:33.548Z,14.26
2018-05-24T03:24:00.483Z,14.31
2018-05-24T03:26:26.415Z,14.35
2018-05-24T03:28:52.410Z,14.36
2018-05-24T03:31:18.354Z,14.38
2018-05-24T03:33:44.280Z,14.42
2018-05-24T03:36:12.214Z,14.43
2018-05-24T03:38:38.096Z,14.51
2018-05-24T03:41:04.019Z,14.62
2018-05-24T03:43:29.895Z,14.61
2018-05-24T03:45:55.775Z,14.63
2018-05-24T03:48:21.698Z,14.68
2018-05-24T03:50:47.560Z,14.75
2018-05-24T03:53:13.432Z,14.74
2018-05-24T03:55:39.451Z,14.84
2018-05-24T03:58:05.331Z,14.86
2018-05-24T04:00:43.587Z,14.91
2018-05-24T04:03:22.709Z,15.12
2018-05-24T04:05:48.650Z,15.05
2018-05-24T04:08:14.581Z,15.16
2018-05-24T04:10:40.466Z,15.19
2018-05-24T04:13:06.493Z,15.19
2018-05-24T04:15:32.318Z,15.24
2018-05-24T04:17:58.214Z,15.31
2018-05-24T04:20:24.123Z,15.27
2018-05-24T04:22:50.985Z,15.34
2018-05-24T04:25:16.873Z,15.35
2018-05-24T04:27:42.879Z,15.42
2018-05-24T04:30:08.760Z,15.38
2018-05-24T04:32:34.705Z,15.51
2018-05-24T04:35:00.652Z,15.58
2018-05-24T04:37:31.971Z,15.55
2018-05-24T04:39:57.847Z,15.56
2018-05-24T04:42:23.771Z,15.57
2018-05-24T04:44:49.667Z,15.62
2018-05-24T04:47:15.557Z,15.69
2018-05-24T04:49:41.507Z,15.71
2018-05-24T04:52:07.419Z,15.75
2018-05-24T04:54:33.332Z,15.85
2018-05-24T04:56:59.335Z,15.83
2018-05-24T04:59:25.242Z,15.87
2018-05-24T05:01:51.177Z,15.90
2018-05-24T05:04:17.134Z,15.98
2018-05-24T05:06:43.035Z,16.00
2018-05-24T05:09:08.924Z,15.99
2018-05-24T05:11:34.859Z,16.03
2018-05-24T05:14:00.764Z,16.20
2018-05-24T05:16:26.636Z,16.25
2018-05-24T05:18:52.572Z,16.28
2018-05-24T05:21:18.493Z,16.25
2018-05-24T05:23:44.463Z,16.40
2018-05-24T05:26:10.389Z,16.49
2018-05-24T05:28:36.268Z,16.56
2018-05-24T05:31:02.149Z,16.78
2018-05-24T05:33:28.183Z,16.94
2018-05-24T05:35:54.102Z,16.90
2018-05-24T05:38:20.078Z,16.99
2018-05-24T05:40:45.930Z,17.18
2018-05-24T05:43:11.812Z,17.07
2018-05-24T05:45:37.691Z,17.01
2018-05-24T05:48:03.607Z,17.25
2018-05-24T05:50:29.491Z,17.23
2018-05-24T05:52:55.397Z,17.27
2018-05-24T05:55:21.363Z,17.52
2018-05-24T05:57:47.373Z,17.54
2018-05-24T06:00:13.295Z,17.72
2018-05-24T06:02:39.272Z,17.93
2018-05-24T06:05:05.177Z,17.98
2018-05-24T06:07:31.055Z,17.88
2018-05-24T06:09:57.072Z,17.89
2018-05-24T06:12:22.949Z,17.66
2018-05-24T06:14:48.840Z,17.78
2018-05-24T06:17:14.763Z,17.87
2018-05-24T06:19:40.664Z,17.92
2018-05-24T06:22:06.572Z,17.73
2018-05-24T06:24:32.496Z,17.81
2018-05-24T06:27:03.458Z,18.06
2018-05-24T06:29:29.360Z,18.34
2018-05-24T06:31:55.280Z,18.40
2018-05-24T06:34:21.223Z,18.51
2018-05-24T06:36:47.108Z,18.76
2018-05-24T06:39:13.020Z,19.00
2018-05-24T06:41:38.908Z,19.01
2018-05-24T06:44:04.820Z,19.15
2018-05-24T06:46:30.787Z,19.12
2018-05-24T06:48:56.675Z,19.27
2018-05-24T06:51:22.568Z,19.02
2018-05-24T06:53:48.547Z,19.31
2018-05-24T06:56:14.433Z,19.28
2018-05-24T06:58:40.324Z,19.08
2018-05-24T07:01:06.280Z,19.30
2018-05-24T07:03:32.168Z,19.34
2018-05-24T07:05:58.103Z,19.40
2018-05-24T07:08:23.978Z,19.39
2018-05-24T07:10:50.008Z,19.63
2018-05-24T07:13:15.969Z,19.74
2018-05-24T07:15:41.896Z,19.97
2018-05-24T07:18:07.788Z,20.29
2018-05-24T07:20:33.748Z,20.38
2018-05-24T07:22:59.718Z,20.52
2018-05-24T07:25:25.645Z,20.58
2018-05-24T07:27:56.708Z,20.79
2018-05-24T07:30:22.689Z,20.92
2018-05-24T07:32:50.587Z,21.40
2018-05-24T07:35:16.911Z,21.70
2018-05-24T07:37:42.931Z,21.62
2018-05-24T07:40:12.697Z,22.26
2018-05-24T07:42:38.670Z,22.17
2018-05-24T07:45:04.684Z,22.37
2018-05-24T07:47:30.509Z,22.62
2018-05-24T07:49:56.435Z,22.72
2018-05-24T07:52:22.355Z,22.37
2018-05-24T07:54:48.301Z,22.45
2018-05-24T07:57:14.120Z,22.51
2018-05-24T07:59:40.051Z,22.52
2018-05-24T08:02:05.947Z,22.44
2018-05-24T08:04:31.844Z,22.35
2018-05-24T08:06:57.764Z,22.07
2018-05-24T08:09:23.725Z,21.74
2018-05-24T08:11:49.595Z,21.88
2018-05-24T08:14:15.582Z,21.77
2018-05-24T08:16:41.496Z,22.00
2018-05-24T08:19:07.668Z,21.63
2018-05-24T08:21:34.104Z,21.80
2018-05-24T08:24:01.007Z,21.85
2018-05-24T08:26:27.382Z,21.98
2018-05-24T08:28:53.377Z,22.51
2018-05-24T08:31:19.268Z,22.38
2018-05-24T08:33:45.138Z,22.40
2018-05-24T08:36:11.103Z,22.74
2018-05-24T08:38:36.982Z,22.76
2018-05-24T08:41:02.913Z,22.49
2018-05-24T08:43:28.983Z,22.41
2018-05-24T08:45:55.065Z,22.38
2018-05-24T08:48:20.950Z,22.54
2018-05-24T08:50:46.893Z,22.60
2018-05-24T08:53:12.847Z,22.64
2018-05-24T08:55:38.727Z,23.05
2018-05-24T08:58:04.684Z,23.26
2018-05-24T09:00:30.595Z,23.52
2018-05-24T09:02:56.483Z,23.68
2018-05-24T09:05:22.699Z,24.14
2018-05-24T09:07:48.597Z,24.70
2018-05-24T09:10:14.485Z,25.04
2018-05-24T09:12:40.430Z,24.72
2018-05-24T09:15:06.360Z,24.84
2018-05-24T09:17:32.290Z,24.48
2018-05-24T09:20:06.657Z,24.95
2018-05-24T09:22:32.491Z,24.81
2018-05-24T09:24:58.467Z,25.34
2018-05-24T09:27:24.556Z,25.75
2018-05-24T09:29:50.432Z,26.15
2018-05-24T09:32:16.323Z,25.91
2018-05-24T09:34:42.276Z,26.29
2018-05-24T09:37:11.396Z,26.13
2018-05-24T09:39:37.395Z,26.24
2018-05-24T09:42:03.418Z,26.69
2018-05-24T09:44:29.295Z,27.01
2018-05-24T09:46:55.184Z,27.24
2018-05-24T09:49:21.591Z,27.00
2018-05-24T09:51:47.540Z,27.36
2018-05-24T09:54:13.415Z,27.70
2018-05-24T09:56:39.347Z,27.29
2018-05-24T09:59:05.332Z,27.22
2018-05-24T10:01:31.215Z,27.41
2018-05-24T10:03:57.164Z,27.83
2018-05-24T10:06:23.078Z,26.72
2018-05-24T10:08:48.951Z,27.14
2018-05-24T10:11:14.859Z,27.30
2018-05-24T10:13:40.742Z,27.17
2018-05-24T10:16:06.683Z,28.06
2018-05-24T10:18:32.633Z,28.49
2018-05-24T10:20:59.561Z,28.49
2018-05-24T10:23:25.455Z,28.15
2018-05-24T10:25:51.415Z,28.06
2018-05-24T10:28:17.326Z,27.75
2018-05-24T10:30:43.394Z,27.07
2018-05-24T10:33:09.323Z,27.21
2018-05-24T10:35:35.258Z,27.67
2018-05-24T10:38:03.135Z,28.34
2018-05-24T10:40:33.929Z,27.70
2018-05-24T10:43:01.057Z,28.64
2018-05-24T10:45:27.029Z,28.64
2018-05-24T10:47:52.992Z,27.98
2018-05-24T10:50:18.877Z,27.37
2018-05-24T10:52:44.784Z,27.82
2018-05-24T10:55:10.704Z,28.38
2018-05-24T10:57:36.672Z,28.01
2018-05-24T11:00:03.688Z,28.52
2018-05-24T11:02:29.664Z,28.05
2018-05-24T11:04:55.568Z,28.03
2018-05-24T11:07:21.565Z,28.41
2018-05-24T11:09:47.495Z,29.19
2018-05-24T11:12:13.378Z,29.93
2018-05-24T11:14:39.335Z,29.55
2018-05-24T11:17:05.265Z,30.15
2018-05-24T11:19:31.135Z,29.82
2018-05-24T11:21:57.021Z,29.23
2018-05-24T11:24:23.042Z,28.61
2018-05-24T11:26:48.961Z,29.60
2018-05-24T11:29:14.863Z,28.71
2018-05-24T11:31:40.816Z,28.91
2018-05-24T11:34:06.686Z,28.69
2018-05-24T11:36:32.606Z,29.16
2018-05-24T11:39:01.257Z,29.74
2018-05-24T11:41:27.478Z,30.52
2018-05-24T11:43:53.465Z,30.57
2018-05-24T11:46:19.393Z,31.14
2018-05-24T11:48:45.267Z,30.65
2018-05-24T11:51:14.260Z,29.65
2018-05-24T11:53:40.920Z,30.30
2018-05-24T11:56:06.849Z,31.47
2018-05-24T11:58:32.758Z,32.05
2018-05-24T12:01:03.520Z,31.64
2018-05-24T12:03:29.396Z,31.64
2018-05-24T12:05:55.945Z,30.43
2018-05-24T12:08:21.884Z,30.67
2018-05-24T12:10:47.770Z,30.52
2018-05-24T12:13:13.663Z,29.71
2018-05-24T12:15:39.600Z,30.00
2018-05-24T12:18:06.524Z,29.19
2018-05-24T12:20:32.404Z,28.66
2018-05-24T12:22:58.337Z,28.44
2018-05-24T12:25:24.244Z,27.27
2018-05-24T12:27:50.117Z,26.70
2018-05-24T12:30:16.032Z,26.94
2018-05-24T12:32:42.004Z,27.57
2018-05-24T12:35:07.891Z,27.28
2018-05-24T12:37:33.825Z,27.06
2018-05-24T12:39:59.792Z,27.28
2018-05-24T12:42:25.677Z,27.43
2018-05-24T12:44:51.608Z,27.53
2018-05-24T12:47:17.516Z,27.09
2018-05-24T12:49:43.426Z,26.49
2018-05-24T12:52:09.368Z,26.48
2018-05-24T12:54:35.280Z,26.77
2018-05-24T12:57:01.172Z,26.55
2018-05-24T12:59:27.102Z,26.78
2018-05-24T13:01:53.004Z,26.61
2018-05-24T13:04:18.993Z,26.79
2018-05-24T13:06:44.980Z,27.61
2018-05-24T13:09:10.932Z,27.55
2018-05-24T13:11:36.866Z,27.43
2018-05-24T13:14:02.791Z,27.63
2018-05-24T13:16:28.671Z,27.53
2018-05-24T13:18:54.612Z,26.95
2018-05-24T13:21:22.659Z,27.12
2018-05-24T13:23:53.300Z,26.84
2018-05-24T13:26:35.437Z,27.28
2018-05-24T13:29:05.507Z,27.81
2018-05-24T13:31:31.545Z,27.79
2018-05-24T13:34:00.932Z,27.84
2018-05-24T13:36:27.681Z,27.50
2018-05-24T13:38:57.144Z,27.47
2018-05-24T13:41:26.769Z,27.79
2018-05-24T13:43:52.924Z,27.41
2018-05-24T13:46:18.871Z,27.41
2018-05-24T13:48:44.815Z,27.20
2018-05-24T13:51:10.791Z,26.80
2018-05-24T13:53:36.753Z,27.11
2018-05-24T13:56:05.709Z,27.46
2018-05-24T13:58:31.826Z,27.89
2018-05-24T14:01:03.472Z,27.85
2018-05-24T14:03:30.099Z,27.59
2018-05-24T14:05:56.994Z,27.61
2018-05-24T14:08:23.010Z,27.73
2018-05-24T14:10:55.436Z,27.90
2018-05-24T14:13:21.411Z,27.24
2018-05-24T14:15:47.636Z,26.68
2018-05-24T14:18:13.913Z,27.01
2018-05-24T14:20:40.163Z,27.50
2018-05-24T14:23:06.249Z,27.48
2018-05-24T14:25:32.227Z,27.50
2018-05-24T14:30:36.805Z,27.37
2018-05-24T14:33:06.392Z,27.17
2018-05-24T14:35:33.224Z,27.05
2018-05-24T14:38:01.875Z,27.72
2018-05-24T14:40:36.404Z,28.46
2018-05-24T14:43:06.428Z,27.75
2018-05-24T14:48:03.990Z,27.42
2018-05-24T14:50:34.212Z,27.20
2018-05-24T14:53:03.258Z,27.36
2018-05-24T14:55:32.228Z,26.84
2018-05-24T14:58:00.990Z,26.62
2018-05-24T15:00:28.956Z,27.13
2018-05-24T15:02:54.960Z,27.61
2018-05-24T15:05:21.418Z,29.94
2018-05-24T15:07:47.353Z,29.82
2018-05-24T15:10:14.589Z,29.28
2018-05-24T15:12:40.524Z,29.10
2018-05-24T15:15:06.527Z,29.01
2018-05-24T15:17:33.779Z,29.18
2018-05-24T15:19:59.662Z,30.10
2018-05-24T15:22:28.756Z,29.80
2018-05-24T15:24:55.008Z,29.08
2018-05-24T15:27:21.038Z,30.96
2018-05-24T15:29:46.949Z,29.77
2018-05-24T15:32:12.949Z,28.82
2018-05-24T15:34:38.892Z,30.89
2018-05-24T15:37:04.786Z,30.62
2018-05-24T15:39:30.751Z,31.00
2018-05-24T15:41:56.634Z,30.68
2018-05-24T15:44:22.724Z,29.52
2018-05-24T15:46:48.659Z,30.32
2018-05-24T15:49:14.587Z,30.18
2018-05-24T15:51:40.476Z,28.96
2018-05-24T15:54:06.436Z,28.87
2018-05-24T15:56:32.411Z,28.14
2018-05-24T15:58:58.380Z,26.99
2018-05-24T16:01:28.783Z,27.12
2018-05-24T16:03:54.709Z,26.59
2018-05-24T16:06:20.627Z,26.35
2018-05-24T16:08:46.644Z,26.38
2018-05-24T16:11:12.555Z,26.12
2018-05-24T16:13:38.609Z,26.01
2018-05-24T16:16:04.560Z,25.79
2018-05-24T16:18:30.490Z,25.81
2018-05-24T16:20:56.482Z,25.86
2018-05-24T16:23:22.644Z,25.94
2018-05-24T16:25:48.544Z,25.45
2018-05-24T16:28:14.490Z,25.56
2018-05-24T16:30:40.452Z,25.45
2018-05-24T16:33:06.412Z,25.52
2018-05-24T16:35:32.299Z,25.50
2018-05-24T16:37:59.161Z,25.57
2018-05-24T16:40:25.067Z,25.53
2018-05-24T16:42:50.976Z,25.57
2018-05-24T16:45:17.065Z,25.53
2018-05-24T16:47:42.988Z,25.20
2018-05-24T16:50:08.870Z,25.36
2018-05-24T16:52:35.148Z,25.28
2018-05-24T16:55:03.184Z,25.14
2018-05-24T16:57:29.192Z,25.30
2018-05-24T16:59:55.171Z,25.08
2018-05-24T17:02:21.107Z,25.03
2018-05-24T17:04:47.064Z,24.89
2018-05-24T17:07:13.320Z,24.94
2018-05-24T17:09:39.324Z,24.77
2018-05-24T17:12:05.205Z,24.72
2018-05-24T17:14:33.112Z,24.75
2018-05-24T17:17:00.574Z,24.69
2018-05-24T17:19:28.923Z,24.48
2018-05-24T17:21:55.716Z,24.44
2018-05-24T17:24:21.666Z,24.36
2018-05-24T17:26:47.548Z,24.28
2018-05-24T17:29:13.499Z,24.40
2018-05-24T17:31:41.008Z,24.33
2018-05-24T17:34:07.709Z,24.11
2018-05-24T17:36:35.887Z,24.21
2018-05-24T17:39:01.913Z,24.03
2018-05-24T17:41:27.844Z,24.05
2018-05-24T17:43:53.824Z,24.00
2018-05-24T17:46:19.799Z,23.88
2018-05-24T17:48:45.669Z,23.92
2018-05-24T17:51:11.604Z,23.81
2018-05-24T17:53:37.496Z,23.80
2018-05-24T17:56:06.281Z,23.69
2018-05-24T17:58:41.237Z,23.60
2018-05-24T18:01:08.770Z,23.62
2018-05-24T18:03:35.015Z,23.45
2018-05-24T18:06:01.096Z,23.45
2018-05-24T18:08:27.054Z,23.40
2018-05-24T18:10:53.008Z,23.32
2018-05-24T18:13:18.968Z,23.38
2018-05-24T18:15:44.848Z,23.23
2018-05-24T18:18:10.760Z,23.09
2018-05-24T18:20:36.855Z,23.09
2018-05-24T18:23:02.920Z,22.98
2018-05-24T18:25:33.808Z,22.80
2018-05-24T18:28:00.233Z,22.88
2018-05-24T18:30:27.583Z,22.73
2018-05-24T18:32:55.337Z,22.71
2018-05-24T18:35:21.429Z,22.60
2018-05-24T18:37:47.385Z,22.56
2018-05-24T18:40:13.303Z,22.55
2018-05-24T18:42:39.562Z,22.36
2018-05-24T18:45:05.514Z,22.43
2018-05-24T18:47:33.548Z,22.21
2018-05-24T18:49:59.475Z,22.21
2018-05-24T18:52:33.445Z,22.11
2018-05-24T18:55:00.713Z,21.99
2018-05-24T18:57:26.700Z,21.81
2018-05-24T18:59:52.882Z,21.74
2018-05-24T19:02:18.886Z,21.62
2018-05-24T19:04:44.940Z,21.62
2018-05-24T19:07:11.709Z,21.46
2018-05-24T19:09:38.325Z,21.48
2018-05-24T19:12:04.347Z,21.37
2018-05-24T19:14:30.247Z,21.25
2018-05-24T19:16:56.189Z,21.16
2018-05-24T19:19:22.209Z,21.18
2018-05-24T19:21:48.171Z,21.13
2018-05-24T19:24:14.472Z,21.03
2018-05-24T19:26:40.424Z,20.96
2018-05-24T19:29:07.297Z,20.84
2018-05-24T19:31:33.251Z,20.74
2018-05-24T19:33:59.123Z,20.62
2018-05-24T19:36:25.048Z,20.49
2018-05-24T19:38:53.082Z,20.40
2018-05-24T19:41:19.224Z,20.31
2018-05-24T19:43:45.368Z,20.23
2018-05-24T19:46:11.291Z,20.24
2018-05-24T19:48:37.168Z,20.05
2018-05-24T19:51:03.136Z,19.97
2018-05-24T19:53:29.066Z,19.93
2018-05-24T19:55:55.000Z,19.94
2018-05-24T19:58:21.032Z,19.86
2018-05-24T20:00:47.088Z,19.78
2018-05-24T20:03:13.054Z,19.71
2018-05-24T20:05:39.009Z,19.73
2018-05-24T20:08:04.953Z,19.68
2018-05-24T20:10:30.994Z,19.66
2018-05-24T20:12:56.971Z,19.59
2018-05-24T20:15:23.032Z,19.54
2018-05-24T20:17:49.562Z,19.46
2018-05-24T20:20:15.656Z,19.37
2018-05-24T20:22:42.395Z,19.37
2018-05-24T20:25:10.544Z,19.35
2018-05-24T20:27:36.504Z,19.21
2018-05-24T20:30:02.512Z,19.19
2018-05-24T20:32:28.826Z,19.15
2018-05-24T20:34:55.399Z,19.09
2018-05-24T20:37:21.784Z,19.04
2018-05-24T20:39:55.198Z,18.92
2018-05-24T20:42:21.355Z,18.93
2018-05-24T20:46:18.060Z,18.84
2018-05-24T20:48:46.243Z,18.79
2018-05-24T20:51:12.207Z,18.75
2018-05-24T20:53:39.156Z,18.70
2018-05-24T20:56:05.115Z,18.60
2018-05-24T20:58:31.071Z,18.51
2018-05-24T21:00:57.000Z,18.42
2018-05-24T21:03:23.900Z,18.37
2018-05-24T21:05:49.884Z,18.28
2018-05-24T21:08:34.955Z,18.25
2018-05-24T21:11:00.876Z,18.17
2018-05-24T21:13:26.827Z,18.14
2018-05-24T21:15:52.820Z,18.09
2018-05-24T21:18:18.775Z,18.03
2018-05-24T21:20:44.845Z,17.96
2018-05-24T21:23:10.827Z,17.89
2018-05-24T21:25:36.746Z,17.88
2018-05-24T21:28:02.676Z,17.86
2018-05-24T21:30:32.652Z,17.81
2018-05-24T21:32:58.609Z,17.77
2018-05-24T21:35:24.573Z,17.70
2018-05-24T21:37:50.642Z,17.61
2018-05-24T21:40:16.653Z,17.58
2018-05-24T21:42:42.580Z,17.51
2018-05-24T21:45:08.579Z,17.45
2018-05-24T21:47:34.521Z,17.42
2018-05-24T21:50:00.436Z,17.39
2018-05-24T21:52:26.415Z,17.36
2018-05-24T21:54:52.428Z,17.32
2018-05-24T21:57:19.425Z,17.35
2018-05-24T21:59:45.412Z,17.32
2018-05-24T22:02:11.341Z,17.28
2018-05-24T22:04:37.247Z,17.20
2018-05-24T22:07:03.209Z,17.15
2018-05-24T22:09:29.123Z,17.09
2018-05-24T22:11:55.066Z,17.07
2018-05-24T22:14:21.055Z,16.99
2018-05-24T22:16:46.975Z,16.91
2018-05-24T22:19:12.901Z,16.88
2018-05-24T22:21:38.957Z,16.80
2018-05-24T22:24:04.980Z,16.76
2018-05-24T22:26:30.898Z,16.70
2018-05-24T22:28:56.896Z,16.65
2018-05-24T22:31:22.910Z,16.64
2018-05-24T22:33:48.852Z,16.60
2018-05-24T22:36:14.826Z,16.55
2018-05-24T22:38:40.788Z,16.55
2018-05-24T22:41:06.712Z,16.52
2018-05-24T22:43:32.731Z,16.46
2018-05-24T22:45:58.640Z,16.39
2018-05-24T22:48:24.641Z,16.36
2018-05-24T22:50:50.656Z,16.29
2018-05-24T22:53:16.708Z,16.26
2018-05-24T22:55:42.645Z,16.21
2018-05-24T22:58:08.609Z,16.19
2018-05-24T23:00:34.557Z,16.16
2018-05-24T23:03:00.517Z,16.11
2018-05-24T23:05:26.470Z,16.06
2018-05-24T23:07:52.445Z,16.01
2018-05-24T23:10:21.879Z,15.97
2018-05-24T23:12:47.829Z,15.89
2018-05-24T23:15:13.746Z,15.84
2018-05-24T23:17:39.655Z,15.80
2018-05-24T23:20:05.632Z,15.72
2018-05-24T23:22:37.534Z,15.67
2018-05-24T23:25:03.479Z,15.62
2018-05-24T23:27:29.480Z,15.54
2018-05-24T23:29:55.411Z,15.50
2018-05-24T23:32:21.366Z,15.45
2018-05-24T23:34:47.322Z,15.40
2018-05-24T23:37:13.236Z,15.42
2018-05-24T23:39:40.260Z,15.42
2018-05-24T23:42:06.221Z,15.36
2018-05-24T23:44:32.336Z,15.35
2018-05-24T23:46:58.309Z,15.30
2018-05-24T23:49:24.345Z,15.30
2018-05-24T23:51:50.359Z,15.33
2018-05-24T23:54:16.276Z,15.29
2018-05-24T23:56:42.235Z,15.32
2018-05-24T23:59:08.158Z,15.31
